Montague, Massachusetts
Current Conditions -  °F | °C
As of 12:52 PM on Saturday 20 Dec 2014 (Local Time) from KORE Reporting Station
Clear Clear  
Wind Chill: 29°   Ceiling: Unl
Heat Index: 34°   Visibility: 10mi
Dew Point: 17°   Wind: 6mph
Humidity: 50%   Direction: 80°E
Pressure: 30.24"   Gusts: NA
Location:  42.54°N, 72.54°W
Report Text: KORE 201752Z AUTO 08005KT 10SM CLR 01/M08 A3024 RMK AO2 SLP248 T00111083 10017 21067 56015
Loading
Personal Weather Stations






























Interactive Weather Map New forecast layout! Learn more

10-Day Weather Forecast

Advertisements
Track Severe Weather on mobile